Time;durP1;ratioP1;P1;durP2;ratioP2;P2;SDS_P1;SDS_P2;PMS_P1;PMS_P2;Temp;Humidity;BMP_temperature;BMP_pressure;BME280_temperature;BME280_humidity;BME280_pressure;Samples;Min_cycle;Max_cycle;Signal;HPM_P1;HPM_P2
2021/12/04 00:00:57;;;;;;;72.75;40.33;;;4.50;99.90;;;;;;5054459;28;20063;-73
2021/12/04 00:03:23;;;;;;;76.38;41.63;;;4.40;99.90;;;;;;5063909;28;20087;-73
2021/12/04 00:06:02;;;;;;;78.57;42.60;;;4.40;99.90;;;;;;5053163;28;20535;-73
2021/12/04 00:08:28;;;;;;;72.05;40.78;;;4.40;99.90;;;;;;5061671;28;20045;-74
2021/12/04 00:10:54;;;;;;;78.40;40.90;;;4.50;99.90;;;;;;5051415;28;20120;-73
2021/12/04 00:13:20;;;;;;;80.07;41.30;;;4.40;99.90;;;;;;5054525;28;20190;-73
2021/12/04 00:15:48;;;;;;;;;;;4.40;99.90;;;;;;5050364;28;20525;-73
2021/12/04 00:18:14;;;;;;;79.88;41.90;;;4.40;99.90;;;;;;5050020;28;19925;-73
2021/12/04 00:20:41;;;;;;;71.13;39.50;;;4.40;99.90;;;;;;5048155;28;20044;-73
2021/12/04 00:23:07;;;;;;;84.13;41.38;;;4.50;99.90;;;;;;5050652;28;20506;-74
2021/12/04 00:25:32;;;;;;;87.63;42.08;;;4.40;99.90;;;;;;5049961;28;20084;-73
2021/12/04 00:27:58;;;;;;;79.35;42.40;;;4.40;99.90;;;;;;5065938;28;20406;-73
2021/12/04 00:30:26;;;;;;;74.72;41.13;;;4.40;99.90;;;;;;5051751;28;20482;-73
2021/12/04 00:32:58;;;;;;;84.00;43.72;;;4.40;99.90;;;;;;5050935;28;20871;-73
2021/12/04 00:38:17;;;;;;;80.05;42.33;;;4.40;99.90;;;;;;5061484;28;20053;-73
2021/12/04 00:49:11;;;;;;;81.32;42.20;;;4.40;99.90;;;;;;5055226;28;20041;-73
2021/12/04 00:51:41;;;;;;;80.60;41.63;;;4.40;99.90;;;;;;5047451;28;20052;-73
2021/12/04 00:54:09;;;;;;;67.28;38.17;;;4.40;99.90;;;;;;5048628;28;20079;-74
2021/12/04 00:56:35;;;;;;;;;;;4.40;99.90;;;;;;5057290;28;20379;-73
2021/12/04 00:59:01;;;;;;;76.25;39.80;;;4.40;99.90;;;;;;5046314;28;19987;-73
2021/12/04 01:01:27;;;;;;;74.68;40.42;;;4.40;99.90;;;;;;5052404;28;20091;-73
2021/12/04 01:03:52;;;;;;;80.25;41.05;;;4.50;99.90;;;;;;5064395;28;20040;-73
2021/12/04 01:06:18;;;;;;;82.32;42.67;;;4.40;99.90;;;;;;5047903;28;20045;-74
2021/12/04 01:08:43;;;;;;;78.03;41.95;;;4.40;99.90;;;;;;5053707;28;20051;-74
2021/12/04 01:11:09;;;;;;;82.75;40.83;;;4.40;99.90;;;;;;5055573;28;20064;-74
2021/12/04 01:13:35;;;;;;;78.22;39.65;;;4.40;99.90;;;;;;5058176;28;20489;-73
2021/12/04 01:16:01;;;;;;;83.03;42.03;;;4.40;99.90;;;;;;5050413;28;20053;-73
2021/12/04 01:18:27;;;;;;;86.25;42.22;;;4.50;99.90;;;;;;5052049;28;20539;-73
2021/12/04 01:20:53;;;;;;;79.40;40.38;;;4.50;99.90;;;;;;5057820;28;20051;-73
2021/12/04 01:23:18;;;;;;;79.15;39.03;;;4.40;99.90;;;;;;5048915;28;20094;-73
2021/12/04 01:25:45;;;;;;;74.88;38.53;;;4.40;99.90;;;;;;5046013;28;20429;-73
2021/12/04 01:28:11;;;;;;;70.82;37.28;;;4.50;99.90;;;;;;5048632;28;20037;-73
2021/12/04 01:30:37;;;;;;;78.40;38.15;;;4.40;99.90;;;;;;5049761;28;20093;-73
2021/12/04 01:33:03;;;;;;;69.07;36.03;;;4.50;99.90;;;;;;5058846;28;20037;-73
2021/12/04 01:35:29;;;;;;;73.95;38.28;;;4.40;99.90;;;;;;5051319;28;20543;-73
2021/12/04 01:37:56;;;;;;;72.75;37.20;;;4.50;99.90;;;;;;5047750;28;20041;-73
2021/12/04 01:40:21;;;;;;;65.75;34.42;;;4.40;99.90;;;;;;5065085;28;20132;-73
2021/12/04 01:42:47;;;;;;;59.45;33.85;;;4.40;99.90;;;;;;5054490;28;20147;-73
2021/12/04 01:45:14;;;;;;;69.82;37.47;;;4.50;99.90;;;;;;5059002;28;20048;-74
2021/12/04 01:47:39;;;;;;;66.40;35.20;;;4.40;99.90;;;;;;5058876;28;20450;-73
2021/12/04 01:50:06;;;;;;;63.90;37.22;;;4.40;99.90;;;;;;5054392;28;20099;-73
2021/12/04 01:52:33;;;;;;;62.25;34.40;;;4.50;99.90;;;;;;5062269;28;20134;-73
2021/12/04 01:55:08;;;;;;;61.20;35.08;;;4.50;99.90;;;;;;5046813;28;20136;-73
2021/12/04 01:57:34;;;;;;;65.13;36.60;;;4.50;99.90;;;;;;5053313;28;20589;-73
2021/12/04 01:59:59;;;;;;;70.07;37.63;;;4.50;99.90;;;;;;5062448;28;20123;-74
2021/12/04 02:02:25;;;;;;;60.50;34.05;;;4.40;99.90;;;;;;5049590;28;20077;-73
2021/12/04 02:04:51;;;;;;;64.55;36.28;;;4.50;99.90;;;;;;5057096;28;20037;-73
2021/12/04 02:07:19;;;;;;;61.08;33.85;;;4.50;99.90;;;;;;5051379;28;20040;-73
2021/12/04 02:09:45;;;;;;;63.80;34.97;;;4.50;99.90;;;;;;5053716;28;20045;-73
2021/12/04 02:12:11;;;;;;;63.97;36.83;;;4.50;99.90;;;;;;5061981;28;20051;-73
2021/12/04 02:14:40;;;;;;;58.65;36.70;;;4.50;99.90;;;;;;5049498;28;20051;-73
2021/12/04 02:17:07;;;;;;;62.33;36.47;;;4.50;99.90;;;;;;5063382;28;20041;-73
2021/12/04 02:19:33;;;;;;;65.72;36.63;;;4.50;99.90;;;;;;5056206;28;20048;-73
2021/12/04 02:21:59;;;;;;;63.15;36.63;;;4.50;99.90;;;;;;5047942;28;20387;-73
2021/12/04 02:24:25;;;;;;;56.88;33.15;;;4.50;99.90;;;;;;5062699;28;20048;-73
2021/12/04 02:26:51;;;;;;;50.08;33.78;;;4.50;99.90;;;;;;5051592;28;20037;-73
2021/12/04 02:29:18;;;;;;;64.35;34.15;;;4.50;99.90;;;;;;5061349;28;20070;-73
2021/12/04 02:31:52;;;;;;;51.85;33.17;;;4.50;99.90;;;;;;5047489;28;20057;-73
2021/12/04 02:34:28;;;;;;;50.53;32.63;;;4.50;99.90;;;;;;5050566;28;20406;-73
2021/12/04 02:36:55;;;;;;;50.45;31.23;;;4.50;99.90;;;;;;5061834;28;20397;-73
2021/12/04 02:39:31;;;;;;;53.05;32.90;;;4.50;99.90;;;;;;5054743;28;20123;-73
2021/12/04 02:41:58;;;;;;;58.10;32.58;;;4.50;99.90;;;;;;5054962;28;20711;-73
2021/12/04 02:44:40;;;;;;;55.90;30.98;;;4.50;99.90;;;;;;5061781;28;20051;-73
2021/12/04 02:47:06;;;;;;;44.10;30.58;;;4.50;99.90;;;;;;5047028;28;20056;-73
2021/12/04 02:49:32;;;;;;;49.38;30.00;;;4.50;99.90;;;;;;5046841;28;20037;-73
2021/12/04 02:52:03;;;;;;;43.72;27.23;;;4.50;99.90;;;;;;5057739;28;20057;-73
2021/12/04 02:54:30;;;;;;;46.88;30.15;;;4.50;99.90;;;;;;5051894;28;20123;-73
2021/12/04 02:56:55;;;;;;;45.55;29.92;;;4.50;99.90;;;;;;5064256;28;20060;-73
2021/12/04 02:59:21;;;;;;;38.38;26.33;;;4.50;99.90;;;;;;5046222;28;20658;-73
2021/12/04 03:01:47;;;;;;;44.20;28.45;;;4.50;99.90;;;;;;5046911;28;20124;-73
2021/12/04 03:04:13;;;;;;;42.50;27.25;;;4.50;99.90;;;;;;5046539;28;20049;-73
2021/12/04 03:06:45;;;;;;;41.53;27.60;;;4.50;99.90;;;;;;5046335;28;20057;-73
2021/12/04 03:09:11;;;;;;;41.58;25.77;;;4.50;99.90;;;;;;5059786;28;21030;-73
2021/12/04 03:11:37;;;;;;;43.25;28.02;;;4.50;99.90;;;;;;5048191;28;20446;-73
2021/12/04 03:14:04;;;;;;;36.97;26.05;;;4.50;99.90;;;;;;5062656;28;20190;-73
2021/12/04 03:16:31;;;;;;;36.53;25.27;;;4.50;99.90;;;;;;5058338;28;20044;-74
2021/12/04 03:18:57;;;;;;;36.22;23.63;;;4.40;99.90;;;;;;5053294;28;20094;-73
2021/12/04 03:21:22;;;;;;;41.45;26.13;;;4.40;99.90;;;;;;5052724;28;20045;-73
2021/12/04 03:23:53;;;;;;;35.22;23.73;;;4.50;99.90;;;;;;5052807;28;20110;-73
2021/12/04 03:26:19;;;;;;;33.30;22.63;;;4.40;99.90;;;;;;5053738;28;20052;-73
2021/12/04 03:28:45;;;;;;;30.95;23.08;;;4.40;99.90;;;;;;5058017;28;20056;-73
2021/12/04 03:31:20;;;;;;;31.80;22.67;;;4.40;99.90;;;;;;5052737;28;20049;-73
2021/12/04 03:41:59;;;;;;;33.65;22.02;;;4.40;99.90;;;;;;5054807;28;20144;-73
2021/12/04 03:44:25;;;;;;;27.13;21.27;;;4.40;99.90;;;;;;5049433;28;20049;-73
2021/12/04 03:46:51;;;;;;;34.88;23.27;;;4.40;99.90;;;;;;5040501;28;20138;-73
2021/12/04 03:49:17;;;;;;;29.48;19.65;;;4.40;99.90;;;;;;5049660;28;20045;-73
2021/12/04 03:51:43;;;;;;;31.00;21.60;;;4.40;99.90;;;;;;5051028;28;20041;-73
2021/12/04 03:54:08;;;;;;;29.63;22.15;;;4.40;99.90;;;;;;5066165;28;20057;-73
2021/12/04 03:56:36;;;;;;;33.75;21.15;;;4.40;99.90;;;;;;5053035;28;20418;-73
2021/12/04 03:59:02;;;;;;;32.15;23.42;;;4.40;99.90;;;;;;5055786;28;20557;-73
2021/12/04 04:01:28;;;;;;;29.35;20.33;;;4.40;99.90;;;;;;5045220;28;20045;-73
2021/12/04 04:03:54;;;;;;;32.58;22.13;;;4.40;99.90;;;;;;5048196;28;20102;-73
2021/12/04 04:06:19;;;;;;;33.17;23.70;;;4.40;99.90;;;;;;5052007;28;20179;-73
2021/12/04 04:08:45;;;;;;;32.72;21.98;;;4.40;99.90;;;;;;5051403;28;20071;-73
2021/12/04 04:11:11;;;;;;;37.65;24.00;;;4.40;99.90;;;;;;5048694;28;20056;-73
2021/12/04 04:13:41;;;;;;;32.13;22.23;;;4.40;99.90;;;;;;5049271;28;20118;-73
2021/12/04 04:16:07;;;;;;;34.88;23.75;;;4.40;99.90;;;;;;5053979;28;20045;-73
2021/12/04 04:18:33;;;;;;;38.40;24.27;;;4.40;99.90;;;;;;5063894;28;20046;-73
2021/12/04 04:20:59;;;;;;;39.15;24.60;;;4.40;99.90;;;;;;5050541;28;20056;-73
2021/12/04 04:23:25;;;;;;;37.08;23.73;;;4.40;99.90;;;;;;5049708;28;20040;-74
2021/12/04 04:25:51;;;;;;;35.25;23.40;;;4.40;99.90;;;;;;5057115;28;20489;-73
2021/12/04 04:28:17;;;;;;;38.97;23.42;;;4.30;99.90;;;;;;5056468;28;20033;-73
2021/12/04 04:30:42;;;;;;;44.13;24.42;;;4.30;99.90;;;;;;5062937;28;20047;-73
2021/12/04 04:33:11;;;;;;;37.65;23.85;;;4.30;99.90;;;;;;5051039;28;20032;-73
2021/12/04 04:35:37;;;;;;;39.15;24.30;;;4.30;99.90;;;;;;5060674;28;20056;-73
2021/12/04 04:38:13;;;;;;;39.50;24.38;;;4.30;99.90;;;;;;5049862;28;20572;-73
2021/12/04 05:00:10;;;;;;;39.53;24.55;;;4.30;99.90;;;;;;5048200;28;20080;-74
2021/12/04 05:13:08;;;;;;;40.85;24.38;;;4.40;99.90;;;;;;5047146;28;20048;-73
2021/12/04 05:21:04;;;;;;;40.38;24.27;;;4.40;99.90;;;;;;5053042;28;20128;-73
2021/12/04 05:23:34;;;;;;;36.78;23.58;;;4.40;99.90;;;;;;5046627;28;20037;-73
2021/12/04 05:26:02;;;;;;;33.63;22.00;;;4.40;99.90;;;;;;5051504;28;20063;-73
2021/12/04 05:28:29;;;;;;;39.45;23.63;;;4.40;99.90;;;;;;5059375;28;20138;-73
2021/12/04 05:30:55;;;;;;;39.85;23.70;;;4.40;99.90;;;;;;5047512;28;20045;-73
2021/12/04 05:33:21;;;;;;;38.00;22.58;;;4.40;99.90;;;;;;5047087;28;20550;-73
2021/12/04 05:35:48;;;;;;;38.55;25.10;;;4.40;99.90;;;;;;5048896;28;20196;-73
2021/12/04 05:38:15;;;;;;;35.88;23.02;;;4.40;99.90;;;;;;5042008;28;20064;-73
2021/12/04 05:40:42;;;;;;;33.65;22.33;;;4.40;99.90;;;;;;5038774;28;20048;-73
2021/12/04 05:43:08;;;;;;;36.70;23.10;;;4.40;99.90;;;;;;5046758;28;20037;-73
2021/12/04 05:45:39;;;;;;;36.03;21.80;;;4.40;99.90;;;;;;5050277;28;20563;-73
2021/12/04 05:48:10;;;;;;;35.60;23.33;;;4.40;99.90;;;;;;5045040;28;20060;-73
2021/12/04 05:53:27;;;;;;;44.17;25.23;;;4.40;99.90;;;;;;5050266;28;20483;-73
2021/12/04 05:55:54;;;;;;;35.03;22.45;;;4.40;99.90;;;;;;5035014;28;20505;-73
2021/12/04 05:58:26;;;;;;;37.67;24.33;;;4.40;99.90;;;;;;5047620;28;20048;-73
2021/12/04 06:00:53;;;;;;;40.35;23.02;;;4.40;99.90;;;;;;5045817;28;20048;-73
2021/12/04 06:03:19;;;;;;;33.90;21.88;;;4.40;99.90;;;;;;5041219;28;20044;-73
2021/12/04 06:05:45;;;;;;;48.15;26.23;;;4.40;99.90;;;;;;5047420;28;20472;-73
2021/12/04 06:08:11;;;;;;;43.17;26.02;;;4.40;99.90;;;;;;5039812;28;20063;-73
2021/12/04 06:10:37;;;;;;;41.92;23.90;;;4.40;99.90;;;;;;5036480;28;20049;-73
2021/12/04 06:13:03;;;;;;;38.03;24.08;;;4.40;99.90;;;;;;5046190;28;20033;-73
2021/12/04 06:15:29;;;;;;;39.67;23.65;;;4.30;99.90;;;;;;5039324;28;20131;-73
2021/12/04 06:17:55;;;;;;;42.00;25.35;;;4.40;99.90;;;;;;5046429;28;20041;-73
2021/12/04 06:23:06;;;;;;;35.95;24.27;;;4.40;99.90;;;;;;5041321;28;20096;-73
2021/12/04 06:25:32;;;;;;;41.53;22.77;;;4.40;99.90;;;;;;5032414;28;20124;-73
2021/12/04 06:27:58;;;;;;;41.38;24.83;;;4.30;99.90;;;;;;5046077;28;20040;-73
2021/12/04 06:30:25;;;;;;;42.67;25.15;;;4.40;99.90;;;;;;5056050;28;20140;-73
2021/12/04 06:32:52;;;;;;;39.63;24.73;;;4.40;99.90;;;;;;5045983;28;20051;-73
2021/12/04 06:35:20;;;;;;;33.40;23.80;;;4.40;99.90;;;;;;5047206;28;20454;-73
2021/12/04 06:37:48;;;;;;;42.90;26.45;;;4.40;99.90;;;;;;5045795;28;20041;-73
2021/12/04 06:40:16;;;;;;;40.25;24.48;;;4.40;99.90;;;;;;5042365;28;20048;-73
2021/12/04 06:42:43;;;;;;;38.58;24.27;;;4.40;99.90;;;;;;5049795;28;20053;-73
2021/12/04 06:45:09;;;;;;;35.20;24.02;;;4.40;99.90;;;;;;5053182;28;20064;-73
2021/12/04 06:47:37;;;;;;;31.77;21.83;;;4.40;99.90;;;;;;5047259;28;20048;-73
2021/12/04 06:50:09;;;;;;;35.22;23.38;;;4.40;99.90;;;;;;5048311;28;20059;-73
2021/12/04 06:52:36;;;;;;;31.98;21.05;;;4.40;99.90;;;;;;5060682;28;20420;-73
2021/12/04 06:55:03;;;;;;;37.45;23.88;;;4.40;99.90;;;;;;5066428;28;20059;-73
2021/12/04 06:57:33;;;;;;;38.88;24.15;;;4.40;99.90;;;;;;5050756;28;20057;-73
2021/12/04 06:59:59;;;;;;;36.72;22.83;;;4.40;99.90;;;;;;5063137;28;20044;-73
2021/12/04 07:02:25;;;;;;;39.40;23.67;;;4.40;99.90;;;;;;5050897;28;20041;-73
2021/12/04 07:04:50;;;;;;;44.28;25.77;;;4.40;99.90;;;;;;5050362;28;20452;-73
2021/12/04 07:07:16;;;;;;;36.67;23.70;;;4.40;99.90;;;;;;5050463;28;20045;-73
2021/12/04 07:09:43;;;;;;;40.03;24.45;;;4.40;99.90;;;;;;5049653;28;20049;-73
2021/12/04 07:12:10;;;;;;;44.75;26.33;;;4.40;99.90;;;;;;5062104;28;20127;-73
2021/12/04 07:14:36;;;;;;;39.15;24.73;;;4.40;99.90;;;;;;5050155;28;20064;-73
2021/12/04 07:17:03;;;;;;;40.72;25.17;;;4.40;99.90;;;;;;5053540;28;20508;-73
2021/12/04 07:19:30;;;;;;;37.83;24.40;;;4.40;99.90;;;;;;5050074;28;20053;-73
2021/12/04 07:21:57;;;;;;;40.38;23.15;;;4.40;99.90;;;;;;5050438;28;20091;-73
2021/12/04 07:24:22;;;;;;;45.30;23.70;;;4.40;99.90;;;;;;5050856;28;20080;-73
2021/12/04 07:26:48;;;;;;;42.28;25.52;;;4.40;99.90;;;;;;5047796;28;20513;-73
2021/12/04 07:29:14;;;;;;;41.05;23.70;;;4.40;99.90;;;;;;5049192;28;20056;-73
2021/12/04 07:31:40;;;;;;;37.97;22.90;;;4.40;99.90;;;;;;5055430;28;20408;-73
2021/12/04 07:34:06;;;;;;;37.13;21.40;;;4.40;99.90;;;;;;5055027;28;20418;-73
2021/12/04 07:36:32;;;;;;;37.03;22.15;;;4.40;99.90;;;;;;5034161;28;20148;-73
2021/12/04 07:39:00;;;;;;;28.88;19.08;;;4.40;99.90;;;;;;5033406;28;20060;-73
2021/12/04 07:41:27;;;;;;;36.88;22.73;;;4.40;99.90;;;;;;5054291;28;20049;-73
2021/12/04 07:43:53;;;;;;;29.98;20.60;;;4.40;99.90;;;;;;5050830;28;20895;-74
2021/12/04 07:46:19;;;;;;;31.38;19.33;;;4.40;99.90;;;;;;5045518;28;20055;-74
2021/12/04 07:48:45;;;;;;;29.73;20.40;;;4.40;99.90;;;;;;5041069;28;20044;-74
2021/12/04 07:51:11;;;;;;;28.88;20.15;;;4.40;99.90;;;;;;5041143;28;20107;-74
2021/12/04 07:53:37;;;;;;;31.90;20.23;;;4.40;99.90;;;;;;5041998;28;21315;-74
2021/12/04 07:56:04;;;;;;;29.35;19.00;;;4.40;99.90;;;;;;5041472;28;20041;-74
2021/12/04 07:58:30;;;;;;;33.20;21.55;;;4.40;99.90;;;;;;5042770;28;20041;-74
2021/12/04 08:00:56;;;;;;;34.42;20.92;;;4.40;99.90;;;;;;5043315;28;20060;-73
2021/12/04 08:03:22;;;;;;;27.38;19.67;;;4.50;99.90;;;;;;5042748;28;20059;-73
2021/12/04 08:05:49;;;;;;;32.85;21.30;;;4.40;99.90;;;;;;5043742;28;20053;-73
2021/12/04 08:08:15;;;;;;;31.90;21.85;;;4.40;99.90;;;;;;5042428;28;20053;-73
2021/12/04 08:10:40;;;;;;;34.50;22.58;;;4.40;99.90;;;;;;5045165;28;20053;-73
2021/12/04 08:13:06;;;;;;;34.55;21.92;;;4.40;99.90;;;;;;5043121;28;20106;-73
2021/12/04 08:15:33;;;;;;;41.47;26.02;;;4.40;99.90;;;;;;5041837;28;20156;-74
2021/12/04 08:17:59;;;;;;;36.65;24.55;;;4.40;99.90;;;;;;5043060;28;20112;-74
2021/12/04 08:20:25;;;;;;;38.88;24.27;;;4.50;99.90;;;;;;5042947;28;20451;-73
2021/12/04 08:22:51;;;;;;;42.58;25.05;;;4.50;99.90;;;;;;5057144;28;20051;-73
2021/12/04 08:25:18;;;;;;;42.10;25.80;;;4.50;99.90;;;;;;5057779;28;20053;-74
2021/12/04 08:27:46;;;;;;;40.25;25.40;;;4.50;99.90;;;;;;5059788;28;20048;-73
2021/12/04 08:30:15;;;;;;;48.42;27.00;;;4.50;99.90;;;;;;5025124;28;20068;-73
2021/12/04 08:32:41;;;;;;;40.42;25.05;;;4.50;99.90;;;;;;5041310;28;20048;-74
2021/12/04 08:35:09;;;;;;;44.08;26.70;;;4.60;99.90;;;;;;5040354;28;20067;-74
2021/12/04 08:37:35;;;;;;;47.08;26.42;;;4.60;99.90;;;;;;5040649;28;20052;-74
2021/12/04 08:40:02;;;;;;;42.28;24.10;;;4.60;99.90;;;;;;5041926;28;20081;-73
2021/12/04 08:42:28;;;;;;;50.75;26.67;;;4.60;99.90;;;;;;5042026;28;20524;-74
2021/12/04 08:44:53;;;;;;;45.60;27.02;;;4.60;99.90;;;;;;5042480;28;20045;-73
2021/12/04 08:47:20;;;;;;;44.28;26.65;;;4.60;99.90;;;;;;5042288;28;20164;-74
2021/12/04 08:49:46;;;;;;;44.03;25.25;;;4.70;99.90;;;;;;5041318;28;20044;-73
2021/12/04 08:52:16;;;;;;;49.03;26.77;;;4.70;99.90;;;;;;5042865;28;20064;-73
2021/12/04 08:54:42;;;;;;;44.75;26.30;;;4.70;99.90;;;;;;5043406;28;20068;-73
2021/12/04 08:57:08;;;;;;;40.85;25.08;;;4.80;99.90;;;;;;5044232;28;20060;-73
2021/12/04 08:59:34;;;;;;;47.80;25.45;;;4.80;99.90;;;;;;5042650;28;20049;-73
2021/12/04 09:02:03;;;;;;;40.88;24.10;;;4.80;99.90;;;;;;5043425;28;20044;-74
2021/12/04 09:04:32;;;;;;;47.67;25.10;;;4.90;99.90;;;;;;5043336;28;20159;-73
2021/12/04 09:06:59;;;;;;;35.97;22.75;;;4.90;99.90;;;;;;5057868;28;20533;-73
2021/12/04 09:09:25;;;;;;;37.55;21.60;;;4.90;99.90;;;;;;5041483;28;20048;-73
2021/12/04 09:11:55;;;;;;;36.22;21.85;;;4.90;99.90;;;;;;5042378;28;20053;-73
2021/12/04 09:14:24;;;;;;;38.08;20.80;;;4.90;99.90;;;;;;5041526;28;20053;-73
2021/12/04 09:16:51;;;;;;;;;;;4.90;99.90;;;;;;5043136;28;20806;-73
2021/12/04 09:19:22;;;;;;;32.00;20.85;;;4.90;99.90;;;;;;5041340;28;19929;-73
2021/12/04 09:21:49;;;;;;;34.78;20.90;;;4.90;99.90;;;;;;5041092;28;20053;-74
2021/12/04 09:24:16;;;;;;;35.92;22.10;;;5.00;99.90;;;;;;5042043;28;20509;-73
2021/12/04 09:32:25;;;;;;;39.17;23.33;;;5.00;99.90;;;;;;5042507;28;20060;-73
2021/12/04 09:35:12;;;;;;;36.17;22.38;;;5.00;99.90;;;;;;5040842;28;20047;-73
2021/12/04 10:04:48;;;;;;;;;;;5.20;99.90;;;;;;5041419;28;20160;-73
2021/12/04 10:20:54;;;;;;;56.85;30.33;;;5.10;99.90;;;;;;5040617;28;20049;-73
2021/12/04 10:34:29;;;;;;;52.55;30.90;;;5.30;99.90;;;;;;5041247;28;20140;-73
2021/12/04 10:37:03;;;;;;;;;;;5.30;99.90;;;;;;5039227;28;20052;-73
2021/12/04 10:39:29;;;;;;;58.72;31.58;;;5.30;99.90;;;;;;5040887;28;20834;-73
2021/12/04 10:41:56;;;;;;;62.13;32.63;;;5.30;99.90;;;;;;5041201;28;20045;-73
2021/12/04 10:44:24;;;;;;;60.72;32.15;;;5.30;99.90;;;;;;5040979;28;20468;-73
2021/12/04 10:47:04;;;;;;;58.75;32.80;;;5.30;99.90;;;;;;5040962;28;20524;-73
2021/12/04 10:49:42;;;;;;;62.80;33.70;;;5.30;99.90;;;;;;5039356;28;20153;-73
2021/12/04 10:52:25;;;;;;;54.55;30.80;;;5.30;99.90;;;;;;5040159;28;20888;-73
2021/12/04 11:02:53;;;;;;;47.88;28.10;;;5.30;99.90;;;;;;5040414;28;20064;-73
2021/12/04 11:43:15;;;;;;;52.58;31.33;;;5.50;99.90;;;;;;5042705;28;20059;-73
2021/12/04 11:45:48;;;;;;;49.88;32.35;;;5.50;99.90;;;;;;5043752;28;20505;-74
2021/12/04 11:48:14;;;;;;;53.42;33.38;;;5.50;99.90;;;;;;5043355;28;20041;-73
2021/12/04 11:50:50;;;;;;;56.05;33.72;;;5.50;99.90;;;;;;5043480;28;20100;-73
2021/12/04 11:53:17;;;;;;;56.13;30.70;;;5.50;99.90;;;;;;5044459;28;20057;-73
2021/12/04 11:55:45;;;;;;;54.63;33.28;;;5.50;99.90;;;;;;5042286;28;20131;-74
2021/12/04 11:58:24;;;;;;;59.92;33.17;;;5.50;99.90;;;;;;5042725;28;20049;-73
2021/12/04 12:00:55;;;;;;;54.50;32.78;;;5.50;99.90;;;;;;5043690;28;20148;-73
2021/12/04 12:03:23;;;;;;;58.67;35.80;;;5.50;99.90;;;;;;5043770;28;20143;-73
2021/12/04 12:05:51;;;;;;;56.22;34.20;;;5.50;99.90;;;;;;5042226;28;20123;-73
2021/12/04 12:08:27;;;;;;;58.78;33.47;;;5.40;99.90;;;;;;5042651;28;20037;-73
2021/12/04 12:11:10;;;;;;;56.40;34.75;;;5.40;99.90;;;;;;5059007;28;20448;-73
2021/12/04 12:13:49;;;;;;;56.67;34.28;;;5.40;99.90;;;;;;5042949;28;20052;-73
2021/12/04 12:16:23;;;;;;;67.93;38.00;;;5.40;99.90;;;;;;5043371;28;20421;-73
2021/12/04 12:19:00;;;;;;;68.68;38.63;;;5.50;99.90;;;;;;5042938;28;20106;-73
2021/12/04 12:21:53;;;;;;;70.10;39.17;;;5.50;99.90;;;;;;5043424;28;20111;-73
2021/12/04 12:38:47;;;;;;;92.28;46.95;;;5.50;99.90;;;;;;5043226;28;20045;-73
2021/12/04 12:41:42;;;;;;;98.45;49.85;;;5.50;99.90;;;;;;5043278;28;20914;-73
2021/12/04 12:44:17;;;;;;;98.63;51.13;;;5.40;99.90;;;;;;5040570;28;20066;-73
2021/12/04 12:47:02;;;;;;;99.65;50.72;;;5.40;99.90;;;;;;5026448;28;20052;-73
2021/12/04 12:49:38;;;;;;;112.03;54.97;;;5.40;99.90;;;;;;5042369;28;20049;-73
2021/12/04 12:52:09;;;;;;;100.05;50.88;;;5.40;99.90;;;;;;5042518;28;20065;-73
2021/12/04 12:54:43;;;;;;;109.50;54.28;;;5.30;99.90;;;;;;5042061;28;20532;-73
2021/12/04 12:57:20;;;;;;;104.78;52.05;;;5.30;99.90;;;;;;5042676;28;20418;-73
2021/12/04 13:14:14;;;;;;;94.63;44.63;;;5.30;99.90;;;;;;5042129;28;20049;-73
2021/12/04 13:16:43;;;;;;;92.35;44.67;;;5.40;99.90;;;;;;5045640;28;20059;-73
2021/12/04 13:19:13;;;;;;;83.70;42.20;;;5.40;99.90;;;;;;5047284;28;20417;-73
2021/12/04 13:21:43;;;;;;;90.47;43.25;;;5.40;99.90;;;;;;5049714;28;20066;-73
2021/12/04 13:24:11;;;;;;;83.05;41.38;;;5.40;99.90;;;;;;5052318;28;20073;-73
2021/12/04 13:26:40;;;;;;;80.60;41.30;;;5.40;99.90;;;;;;5050349;28;20052;-73
2021/12/04 13:29:09;;;;;;;82.88;43.20;;;5.50;99.90;;;;;;5043280;28;20045;-73
2021/12/04 13:31:38;;;;;;;75.65;38.22;;;5.50;99.90;;;;;;5049441;28;20083;-73
2021/12/04 13:34:08;;;;;;;76.28;40.08;;;5.50;99.90;;;;;;5042838;28;20417;-73
2021/12/04 13:36:35;;;;;;;82.40;41.75;;;5.50;99.90;;;;;;5045767;28;20057;-73
2021/12/04 13:39:01;;;;;;;83.57;43.50;;;5.50;99.90;;;;;;5049494;28;20666;-73
2021/12/04 13:41:29;;;;;;;75.95;40.95;;;5.50;99.90;;;;;;5046197;28;20080;-73
2021/12/04 13:43:56;;;;;;;91.07;43.42;;;5.50;99.90;;;;;;5047248;28;20115;-73
2021/12/04 13:46:24;;;;;;;93.13;44.53;;;5.50;99.90;;;;;;5047399;28;20080;-73
2021/12/04 13:48:50;;;;;;;87.73;46.50;;;5.40;99.90;;;;;;5036892;28;20053;-73
2021/12/04 13:51:17;;;;;;;80.70;41.78;;;5.40;99.90;;;;;;5027260;28;20155;-73
2021/12/04 13:53:46;;;;;;;80.15;44.00;;;5.50;99.90;;;;;;5036895;28;20057;-73
2021/12/04 13:56:17;;;;;;;87.22;45.70;;;5.50;99.90;;;;;;5048966;28;20387;-73
2021/12/04 13:59:00;;;;;;;105.28;52.47;;;5.50;99.90;;;;;;5044705;28;20049;-73
2021/12/04 14:01:30;;;;;;;101.93;50.35;;;5.50;99.90;;;;;;5046513;28;20075;-73
2021/12/04 14:03:58;;;;;;;98.78;52.15;;;5.40;99.90;;;;;;5044242;28;20065;-73
2021/12/04 14:06:24;;;;;;;115.32;58.17;;;5.40;99.90;;;;;;5045632;28;20994;-73
2021/12/04 14:09:03;;;;;;;108.80;55.30;;;5.40;99.90;;;;;;5041543;28;20563;-73
2021/12/04 14:11:37;;;;;;;102.63;52.55;;;5.40;99.90;;;;;;5046702;28;20083;-73
2021/12/04 14:14:30;;;;;;;105.32;51.10;;;5.40;99.90;;;;;;5047360;28;20127;-74
2021/12/04 14:17:10;;;;;;;103.50;51.25;;;5.40;99.90;;;;;;5054037;28;20135;-74
2021/12/04 14:19:36;;;;;;;102.60;50.13;;;5.40;99.90;;;;;;5044236;28;20059;-72
2021/12/04 14:22:15;;;;;;;114.05;51.60;;;5.40;99.90;;;;;;5045124;28;20539;-72
2021/12/04 14:24:44;;;;;;;;;;;5.40;99.90;;;;;;5048939;28;20067;-73
2021/12/04 14:27:31;;;;;;;113.53;51.45;;;5.40;99.90;;;;;;5047212;28;19960;-72
2021/12/04 14:30:05;;;;;;;147.07;59.53;;;5.30;99.90;;;;;;5043912;28;20179;-73
2021/12/04 14:32:33;;;;;;;137.70;58.13;;;5.30;99.90;;;;;;5045905;28;20170;-72
2021/12/04 14:35:09;;;;;;;136.63;57.38;;;5.30;99.90;;;;;;5046815;28;20045;-72
2021/12/04 14:37:38;;;;;;;140.13;59.33;;;5.30;99.90;;;;;;5039169;28;20049;-73
2021/12/04 14:40:07;;;;;;;122.43;55.75;;;5.30;99.90;;;;;;5060004;28;20037;-73
2021/12/04 14:42:34;;;;;;;130.15;54.25;;;5.30;99.90;;;;;;5042309;28;20085;-72
2021/12/04 14:45:09;;;;;;;146.03;60.33;;;5.30;99.90;;;;;;5047474;28;20187;-72
2021/12/04 14:47:41;;;;;;;140.48;58.80;;;5.20;99.90;;;;;;5048355;28;20494;-72
2021/12/04 14:50:10;;;;;;;140.02;58.08;;;5.20;99.90;;;;;;5046894;28;20155;-72
2021/12/04 14:52:37;;;;;;;150.10;58.28;;;5.20;99.90;;;;;;5043808;28;20057;-73
2021/12/04 14:55:27;;;;;;;141.75;57.80;;;5.20;99.90;;;;;;5047125;28;20413;-74
2021/12/04 14:57:54;;;;;;;147.95;60.53;;;5.20;99.90;;;;;;5046668;28;20045;-73
2021/12/04 15:00:30;;;;;;;163.75;60.95;;;5.20;99.90;;;;;;5046259;28;20068;-73
2021/12/04 15:03:21;;;;;;;152.27;62.00;;;5.20;99.90;;;;;;5047288;28;20094;-74
2021/12/04 15:05:54;;;;;;;154.63;61.40;;;5.20;99.90;;;;;;5043450;28;20135;-73
2021/12/04 15:08:27;;;;;;;164.48;61.28;;;5.20;99.90;;;;;;5035478;28;20051;-73
2021/12/04 15:11:08;;;;;;;154.05;61.33;;;5.10;99.90;;;;;;5046294;28;20060;-72
2021/12/04 15:13:50;;;;;;;162.70;63.00;;;5.20;99.90;;;;;;5049296;28;20404;-72
2021/12/04 15:16:18;;;;;;;163.43;65.80;;;5.10;99.90;;;;;;5047567;28;20036;-72
2021/12/04 15:18:44;;;;;;;150.07;63.03;;;5.10;99.90;;;;;;5048135;28;20037;-72
2021/12/04 15:21:15;;;;;;;129.30;56.47;;;5.10;99.90;;;;;;5050601;28;20891;-72
2021/12/04 15:23:44;;;;;;;134.73;57.47;;;5.10;99.90;;;;;;5045238;28;20048;-72
2021/12/04 15:26:19;;;;;;;119.80;56.00;;;5.10;99.90;;;;;;5050976;28;20080;-72
2021/12/04 15:28:50;;;;;;;155.68;60.95;;;5.10;99.90;;;;;;5052936;28;20106;-72
2021/12/04 15:31:18;;;;;;;141.27;61.03;;;5.10;99.90;;;;;;5049452;28;20136;-73
2021/12/04 15:33:48;;;;;;;139.43;62.95;;;5.10;99.90;;;;;;5022449;28;20037;-73
2021/12/04 15:36:23;;;;;;;147.75;62.65;;;5.10;99.90;;;;;;5050848;28;20048;-73
2021/12/04 15:38:53;;;;;;;156.90;63.25;;;5.10;99.90;;;;;;5049827;28;20143;-73
2021/12/04 15:54:57;;;;;;;153.90;58.75;;;5.10;99.90;;;;;;5044304;28;20145;-72
2021/12/04 15:57:25;;;;;;;152.30;63.75;;;5.10;99.90;;;;;;5048677;28;20056;-72
2021/12/04 15:59:53;;;;;;;166.45;67.78;;;5.00;99.90;;;;;;5047429;28;20041;-72
2021/12/04 16:02:22;;;;;;;157.23;63.88;;;5.00;99.90;;;;;;5049243;28;20049;-72
2021/12/04 16:04:50;;;;;;;151.57;64.78;;;5.00;99.90;;;;;;5047313;28;20040;-72
2021/12/04 16:07:25;;;;;;;133.70;62.45;;;5.00;99.90;;;;;;5045233;28;20057;-72
2021/12/04 16:09:51;;;;;;;172.65;69.30;;;5.00;99.90;;;;;;5049157;28;20075;-72
2021/12/04 16:12:21;;;;;;;132.00;62.85;;;5.00;99.90;;;;;;5050743;28;20041;-72